createdAt,value
2018-07-14T00:02:25.151Z,60.83
2018-07-14T00:04:52.369Z,61.09
2018-07-14T00:07:19.705Z,60.68
2018-07-14T00:09:46.964Z,61.47
2018-07-14T00:12:14.163Z,61.57
2018-07-14T00:14:41.543Z,61.50
2018-07-14T00:17:08.772Z,60.99
2018-07-14T00:19:36.023Z,61.56
2018-07-14T00:22:03.335Z,61.45
2018-07-14T00:24:30.647Z,61.54
2018-07-14T00:26:57.888Z,62.49
2018-07-14T00:29:25.202Z,62.08
2018-07-14T00:31:52.451Z,62.13
2018-07-14T00:34:19.712Z,62.67
2018-07-14T00:36:46.910Z,62.38
2018-07-14T00:39:14.237Z,62.44
2018-07-14T00:41:41.526Z,62.35
2018-07-14T00:44:08.779Z,62.28
2018-07-14T00:46:36.035Z,62.82
2018-07-14T00:49:03.228Z,63.15
2018-07-14T00:51:30.521Z,62.73
2018-07-14T00:53:58.335Z,63.26
2018-07-14T00:56:25.510Z,62.91
2018-07-14T00:58:52.779Z,63.38
2018-07-14T01:01:20.046Z,63.52
2018-07-14T01:03:47.339Z,63.23
2018-07-14T01:06:14.652Z,63.54
2018-07-14T01:08:41.924Z,63.95
2018-07-14T01:11:09.171Z,63.83
2018-07-14T01:13:36.391Z,63.94
2018-07-14T01:16:03.624Z,64.40
2018-07-14T01:18:31.487Z,64.38
2018-07-14T01:20:58.729Z,65.09
2018-07-14T01:23:26.046Z,65.03
2018-07-14T01:25:53.295Z,65.56
2018-07-14T01:28:20.563Z,64.80
2018-07-14T01:30:47.751Z,65.44
2018-07-14T01:33:14.966Z,65.24
2018-07-14T01:35:42.266Z,65.67
2018-07-14T01:38:09.462Z,65.65
2018-07-14T01:40:36.768Z,65.25
2018-07-14T01:43:09.086Z,64.89
2018-07-14T01:45:40.187Z,65.54
2018-07-14T01:48:07.332Z,64.78
2018-07-14T01:50:34.628Z,64.37
2018-07-14T01:53:01.839Z,64.24
2018-07-14T01:55:29.137Z,64.24
2018-07-14T01:57:56.332Z,64.01
2018-07-14T02:00:25.026Z,63.22
2018-07-14T02:02:52.282Z,63.74
2018-07-14T02:05:19.588Z,62.71
2018-07-14T02:07:46.793Z,64.15
2018-07-14T02:10:14.038Z,64.66
2018-07-14T02:12:41.989Z,64.32
2018-07-14T02:15:09.210Z,64.42
2018-07-14T02:17:36.491Z,64.01
2018-07-14T02:20:03.846Z,63.91
2018-07-14T02:22:31.002Z,63.75
2018-07-14T02:24:58.285Z,63.68
2018-07-14T02:27:25.476Z,64.11
2018-07-14T02:29:52.739Z,63.34
2018-07-14T02:32:19.969Z,63.69
2018-07-14T02:34:47.277Z,63.72
2018-07-14T02:37:14.563Z,63.61
2018-07-14T02:39:41.951Z,63.19
2018-07-14T02:42:09.240Z,63.51
2018-07-14T02:44:36.529Z,63.14
2018-07-14T02:47:03.907Z,64.12
2018-07-14T02:49:31.173Z,63.62
2018-07-14T02:51:58.458Z,64.21
2018-07-14T03:11:42.322Z,64.29
2018-07-14T03:14:09.585Z,64.55
2018-07-14T03:16:36.884Z,63.81
2018-07-14T03:19:04.184Z,64.45
2018-07-14T03:21:31.437Z,64.50
2018-07-14T03:23:58.688Z,64.79
2018-07-14T03:26:26.028Z,65.21
2018-07-14T03:28:53.420Z,64.90
2018-07-14T03:31:20.713Z,65.46
2018-07-14T03:33:47.956Z,65.18
2018-07-14T03:36:15.162Z,65.35
2018-07-14T03:38:42.421Z,65.99
2018-07-14T03:41:09.641Z,65.86
2018-07-14T03:43:36.926Z,65.69
2018-07-14T03:46:04.137Z,65.51
2018-07-14T03:48:31.350Z,65.77
2018-07-14T03:50:58.587Z,65.30
2018-07-14T03:53:25.852Z,65.75
2018-07-14T03:55:53.053Z,65.18
2018-07-14T03:58:20.382Z,64.99
2018-07-14T04:00:47.579Z,65.43
2018-07-14T04:03:14.825Z,65.36
2018-07-14T04:05:42.021Z,65.64
2018-07-14T04:08:10.063Z,65.28
2018-07-14T04:10:37.251Z,65.52
2018-07-14T04:13:04.434Z,66.08
2018-07-14T04:15:31.636Z,65.71
2018-07-14T04:18:02.834Z,65.62
2018-07-14T04:20:30.052Z,66.14
2018-07-14T04:22:57.636Z,65.41
2018-07-14T04:25:24.890Z,66.34
2018-07-14T04:27:52.131Z,66.51
2018-07-14T04:30:19.392Z,64.64
2018-07-14T04:32:46.613Z,65.10
2018-07-14T04:35:13.905Z,65.90
2018-07-14T04:37:41.111Z,66.78
2018-07-14T04:40:08.368Z,66.72
2018-07-14T04:42:35.658Z,66.66
2018-07-14T04:45:03.000Z,66.91
2018-07-14T04:47:30.279Z,65.93
2018-07-14T04:49:57.521Z,65.43
2018-07-14T04:52:24.722Z,65.70
2018-07-14T04:54:52.021Z,65.91
2018-07-14T04:57:19.302Z,65.25
2018-07-14T04:59:46.540Z,63.74
2018-07-14T05:02:13.775Z,64.21
2018-07-14T05:04:41.029Z,65.33
2018-07-14T05:07:08.244Z,65.32
2018-07-14T05:09:35.518Z,64.96
2018-07-14T05:12:03.771Z,64.69
2018-07-14T05:14:31.036Z,65.00
2018-07-14T05:16:58.326Z,65.53
2018-07-14T05:19:25.617Z,65.51
2018-07-14T05:21:52.881Z,64.89
2018-07-14T05:24:20.134Z,64.82
2018-07-14T05:26:47.441Z,64.80
2018-07-14T05:29:14.662Z,63.76
2018-07-14T05:31:41.969Z,63.54
2018-07-14T05:34:09.169Z,64.43
2018-07-14T05:36:36.480Z,65.27
2018-07-14T05:39:04.787Z,65.08
2018-07-14T05:41:32.115Z,64.49
2018-07-14T05:43:59.438Z,64.35
2018-07-14T05:46:26.689Z,63.06
2018-07-14T05:48:54.903Z,62.96
2018-07-14T05:51:22.212Z,63.29
2018-07-14T05:53:49.453Z,63.40
2018-07-14T05:56:16.797Z,61.62
2018-07-14T05:58:44.265Z,61.27
2018-07-14T06:01:11.959Z,60.25
2018-07-14T06:03:39.212Z,59.77
2018-07-14T06:06:06.585Z,58.94
2018-07-14T06:08:33.897Z,57.72
2018-07-14T06:11:01.221Z,56.82
2018-07-14T06:13:28.516Z,57.67
2018-07-14T06:15:55.793Z,58.03
2018-07-14T06:18:23.142Z,58.06
2018-07-14T06:20:50.344Z,57.27
2018-07-14T06:23:17.874Z,57.47
2018-07-14T06:25:45.149Z,57.19
2018-07-14T06:28:12.369Z,56.80
2018-07-14T06:30:39.657Z,56.21
2018-07-14T06:33:06.915Z,56.96
2018-07-14T06:35:34.203Z,56.88
2018-07-14T06:38:01.407Z,55.61
2018-07-14T06:40:28.762Z,54.24
2018-07-14T06:42:56.011Z,54.79
2018-07-14T06:45:23.349Z,54.20
2018-07-14T06:47:50.544Z,53.05
2018-07-14T06:50:17.753Z,52.42
2018-07-14T06:52:45.217Z,51.87
2018-07-14T06:55:12.471Z,52.95
2018-07-14T06:57:39.780Z,51.99
2018-07-14T07:00:07.041Z,50.93
2018-07-14T07:02:34.263Z,50.38
2018-07-14T07:05:01.574Z,50.45
2018-07-14T07:07:33.871Z,50.21
2018-07-14T07:10:01.443Z,51.28
2018-07-14T07:12:28.774Z,51.51
2018-07-14T07:14:57.679Z,50.83
2018-07-14T07:17:26.929Z,50.23
2018-07-14T07:19:54.137Z,50.25
2018-07-14T07:22:21.416Z,51.09
2018-07-14T07:24:48.769Z,51.95
2018-07-14T07:27:16.050Z,50.80
2018-07-14T07:29:43.280Z,50.90
2018-07-14T07:32:10.515Z,50.21
2018-07-14T07:34:38.072Z,49.46
2018-07-14T07:37:05.638Z,48.55
2018-07-14T07:39:32.895Z,48.94
2018-07-14T07:42:00.165Z,47.72
2018-07-14T07:44:27.446Z,47.58
2018-07-14T07:46:54.792Z,45.75
2018-07-14T07:49:22.009Z,46.49
2018-07-14T07:51:49.217Z,45.27
2018-07-14T07:54:16.469Z,45.33
2018-07-14T07:56:43.791Z,45.45
2018-07-14T07:59:11.006Z,44.88
2018-07-14T08:01:38.253Z,44.57
2018-07-14T08:04:05.481Z,43.67
2018-07-14T08:06:32.660Z,43.01
2018-07-14T08:08:59.953Z,42.31
2018-07-14T08:11:32.862Z,43.45
2018-07-14T08:14:03.357Z,42.84
2018-07-14T08:16:30.650Z,43.02
2018-07-14T08:18:57.899Z,41.97
2018-07-14T08:21:25.037Z,41.51
2018-07-14T08:23:52.368Z,39.61
2018-07-14T08:26:19.614Z,40.77
2018-07-14T08:28:46.870Z,40.10
2018-07-14T08:31:14.164Z,38.54
2018-07-14T08:33:41.444Z,39.06
2018-07-14T08:36:08.701Z,38.16
2018-07-14T08:38:35.912Z,37.77
2018-07-14T08:41:03.202Z,38.83
2018-07-14T08:43:30.440Z,38.55
2018-07-14T08:45:57.740Z,39.38
2018-07-14T08:48:25.013Z,39.63
2018-07-14T08:50:53.396Z,38.99
2018-07-14T08:53:20.626Z,37.80
2018-07-14T08:55:47.860Z,38.28
2018-07-14T08:58:15.090Z,37.90
2018-07-14T09:00:47.424Z,37.47
2018-07-14T09:03:14.946Z,37.64
2018-07-14T09:05:42.226Z,36.53
2018-07-14T09:08:09.481Z,35.58
2018-07-14T09:10:36.777Z,35.85
2018-07-14T09:13:04.032Z,35.42
2018-07-14T09:15:31.329Z,35.44
2018-07-14T09:17:58.622Z,37.24
2018-07-14T09:20:25.854Z,36.09
2018-07-14T09:22:53.113Z,38.01
2018-07-14T09:25:20.367Z,38.51
2018-07-14T09:27:47.723Z,36.55
2018-07-14T09:30:14.956Z,37.31
2018-07-14T09:32:42.408Z,37.01
2018-07-14T09:35:09.649Z,36.83
2018-07-14T09:37:36.866Z,37.05
2018-07-14T09:40:04.322Z,37.39
2018-07-14T09:42:31.613Z,36.72
2018-07-14T09:44:58.800Z,36.44
2018-07-14T09:47:26.222Z,35.10
2018-07-14T09:49:53.455Z,34.76
2018-07-14T09:52:20.645Z,33.88
2018-07-14T09:54:48.028Z,33.43
2018-07-14T09:57:26.271Z,33.97
2018-07-14T09:59:53.946Z,33.73
2018-07-14T10:02:21.166Z,33.66
2018-07-14T10:04:48.460Z,34.38
2018-07-14T10:07:15.644Z,33.86
2018-07-14T10:09:42.927Z,32.82
2018-07-14T10:12:10.120Z,32.71
2018-07-14T10:14:37.314Z,30.80
2018-07-14T10:17:04.578Z,31.75
2018-07-14T10:19:31.786Z,32.71
2018-07-14T10:21:59.028Z,32.17
2018-07-14T10:24:26.288Z,31.85
2018-07-14T10:26:53.454Z,30.32
2018-07-14T10:29:20.691Z,32.72
2018-07-14T10:31:47.885Z,30.71
2018-07-14T10:34:15.138Z,30.97
2018-07-14T10:36:42.431Z,32.26
2018-07-14T10:39:09.740Z,31.09
2018-07-14T10:41:37.028Z,31.41
2018-07-14T10:44:04.309Z,31.99
2018-07-14T10:46:31.528Z,30.78
2018-07-14T10:48:58.724Z,30.60
2018-07-14T10:51:26.075Z,29.21
2018-07-14T10:53:54.177Z,30.60
2018-07-14T10:56:21.457Z,29.71
2018-07-14T10:58:48.716Z,30.80
2018-07-14T11:01:16.019Z,30.93
2018-07-14T11:03:43.277Z,30.82
2018-07-14T11:06:10.633Z,32.06
2018-07-14T11:08:37.883Z,31.49
2018-07-14T11:11:05.132Z,31.74
2018-07-14T11:13:32.455Z,32.01
2018-07-14T11:15:59.675Z,33.10
2018-07-14T11:18:26.895Z,30.66
2018-07-14T11:20:54.181Z,31.14
2018-07-14T11:23:21.405Z,31.87
2018-07-14T11:25:48.710Z,31.33
2018-07-14T11:28:15.940Z,30.93
2018-07-14T11:30:43.148Z,31.37
2018-07-14T11:33:10.334Z,31.50
2018-07-14T11:35:37.621Z,31.42
2018-07-14T11:38:05.005Z,31.04
2018-07-14T11:40:32.315Z,31.61
2018-07-14T11:42:59.586Z,31.10
2018-07-14T11:45:26.908Z,30.97
2018-07-14T11:47:54.371Z,31.44
2018-07-14T11:50:21.516Z,31.80
2018-07-14T11:52:48.853Z,31.73
2018-07-14T11:55:16.154Z,30.95
2018-07-14T11:57:43.398Z,31.34
2018-07-14T12:00:10.685Z,30.51
2018-07-14T12:02:37.894Z,30.00
2018-07-14T12:05:05.285Z,29.31
2018-07-14T12:07:32.609Z,28.07
2018-07-14T12:09:59.857Z,30.29
2018-07-14T12:12:27.139Z,28.91
2018-07-14T12:14:54.882Z,30.06
2018-07-14T12:17:22.217Z,29.93
2018-07-14T12:19:49.450Z,29.91
2018-07-14T12:22:16.808Z,30.63
2018-07-14T12:24:43.973Z,30.64
2018-07-14T12:27:11.261Z,30.31
2018-07-14T12:29:38.450Z,28.69
2018-07-14T12:32:05.774Z,30.27
2018-07-14T12:34:33.022Z,32.76
2018-07-14T12:37:00.276Z,31.11
2018-07-14T12:39:27.522Z,32.74
2018-07-14T12:41:54.865Z,35.68
2018-07-14T12:44:22.129Z,32.99
2018-07-14T12:46:49.391Z,31.91
2018-07-14T12:49:16.667Z,31.49
2018-07-14T12:51:43.940Z,31.35
2018-07-14T12:54:11.292Z,32.89
2018-07-14T12:56:38.522Z,32.36
2018-07-14T12:59:05.932Z,33.99
2018-07-14T13:01:33.165Z,33.45
2018-07-14T13:04:00.463Z,31.83
2018-07-14T13:06:27.847Z,33.63
2018-07-14T13:08:54.976Z,33.60
2018-07-14T13:11:22.288Z,34.18
2018-07-14T13:13:49.554Z,34.35
2018-07-14T13:16:17.069Z,32.65
2018-07-14T13:18:44.399Z,31.91
2018-07-14T13:21:11.649Z,31.77
2018-07-14T13:23:38.941Z,32.10
2018-07-14T13:26:06.167Z,29.28
2018-07-14T13:28:33.576Z,29.33
2018-07-14T13:31:00.874Z,30.05
2018-07-14T13:33:28.137Z,30.48
2018-07-14T13:35:55.325Z,30.09
2018-07-14T13:38:22.595Z,30.39
2018-07-14T13:40:49.802Z,31.34
2018-07-14T13:43:17.071Z,31.15
2018-07-14T13:45:44.354Z,32.08
2018-07-14T13:48:11.645Z,30.68
2018-07-14T13:50:38.865Z,31.76
2018-07-14T13:53:06.173Z,30.90
2018-07-14T13:55:33.471Z,31.59
2018-07-14T13:58:00.727Z,31.40
2018-07-14T14:00:27.934Z,31.26
2018-07-14T14:02:55.162Z,31.79
2018-07-14T14:05:22.454Z,30.75
2018-07-14T14:07:49.772Z,32.11
2018-07-14T14:10:18.520Z,31.07
2018-07-14T14:12:45.889Z,30.75
2018-07-14T14:15:13.312Z,29.75
2018-07-14T14:17:40.609Z,30.31
2018-07-14T14:20:07.948Z,29.47
2018-07-14T14:22:35.103Z,27.25
2018-07-14T14:25:02.411Z,29.02
2018-07-14T14:27:29.629Z,27.68
2018-07-14T14:29:56.881Z,26.88
2018-07-14T14:32:24.162Z,26.45
2018-07-14T14:34:51.469Z,25.50
2018-07-14T14:37:18.739Z,26.23
2018-07-14T14:39:45.967Z,27.65
2018-07-14T14:42:13.263Z,27.04
2018-07-14T14:44:40.593Z,27.14
2018-07-14T14:47:11.335Z,27.60
2018-07-14T14:49:43.990Z,27.96
2018-07-14T14:52:14.053Z,28.19
2018-07-14T14:54:41.232Z,28.87
2018-07-14T14:57:09.643Z,28.94
2018-07-14T14:59:36.822Z,28.82
2018-07-14T15:02:04.146Z,28.66
2018-07-14T15:04:31.407Z,28.99
2018-07-14T15:06:58.585Z,29.55
2018-07-14T15:09:25.867Z,28.91
2018-07-14T15:11:53.212Z,28.53
2018-07-14T15:14:20.512Z,28.83
2018-07-14T15:16:47.776Z,29.51
2018-07-14T15:19:15.036Z,30.15
2018-07-14T15:21:42.341Z,30.56
2018-07-14T15:24:09.628Z,30.90
2018-07-14T15:26:36.893Z,30.42
2018-07-14T15:29:04.534Z,30.63
2018-07-14T15:31:31.879Z,31.57
2018-07-14T15:33:59.187Z,31.30
2018-07-14T15:36:36.284Z,31.57
2018-07-14T15:39:05.953Z,31.23
2018-07-14T15:41:38.608Z,31.10
2018-07-14T15:44:05.972Z,30.80
2018-07-14T15:46:33.235Z,30.70
2018-07-14T15:49:00.669Z,30.23
2018-07-14T15:51:30.621Z,31.01
2018-07-14T15:54:07.468Z,31.37
2018-07-14T15:56:34.625Z,31.22
2018-07-14T15:59:01.996Z,31.88
2018-07-14T16:01:29.376Z,31.42
2018-07-14T16:03:56.589Z,30.76
2018-07-14T16:06:23.836Z,30.99
2018-07-14T16:08:51.155Z,31.19
2018-07-14T16:11:18.374Z,31.70
2018-07-14T16:13:45.648Z,31.67
2018-07-14T16:16:12.848Z,31.20
2018-07-14T16:18:40.036Z,31.23
2018-07-14T16:21:07.362Z,31.92
2018-07-14T16:23:34.601Z,32.17
2018-07-14T16:26:01.893Z,31.41
2018-07-14T16:28:29.272Z,31.81
2018-07-14T16:30:56.538Z,32.04
2018-07-14T16:33:23.843Z,31.73
2018-07-14T16:35:51.387Z,32.65
2018-07-14T16:38:18.662Z,31.47
2018-07-14T16:40:46.298Z,31.85
2018-07-14T16:43:13.626Z,30.95
2018-07-14T16:45:40.958Z,30.49
2018-07-14T16:48:08.268Z,31.31
2018-07-14T16:50:35.584Z,30.94
2018-07-14T16:53:02.930Z,30.91
2018-07-14T16:55:30.300Z,31.01
2018-07-14T16:57:57.380Z,30.45
2018-07-14T17:00:24.722Z,31.37
2018-07-14T17:02:51.954Z,31.42
2018-07-14T17:05:19.182Z,32.02
2018-07-14T17:07:46.472Z,32.75
2018-07-14T17:10:13.714Z,31.80
2018-07-14T17:12:40.976Z,32.80
2018-07-14T17:15:08.313Z,32.46
2018-07-14T17:17:35.557Z,32.86
2018-07-14T17:20:02.813Z,32.12
2018-07-14T17:22:30.035Z,32.76
2018-07-14T17:24:57.224Z,31.61
2018-07-14T17:27:24.397Z,32.06
2018-07-14T17:29:51.693Z,31.86
2018-07-14T17:32:18.931Z,32.29
2018-07-14T17:34:46.218Z,32.54
2018-07-14T17:37:13.399Z,32.80
2018-07-14T17:39:40.622Z,32.81
2018-07-14T17:42:07.928Z,32.43
2018-07-14T17:44:35.297Z,32.01
2018-07-14T17:47:02.545Z,32.97
2018-07-14T17:49:29.773Z,32.41
2018-07-14T17:51:57.168Z,32.97
2018-07-14T17:54:24.330Z,32.66
2018-07-14T17:56:51.694Z,33.29
2018-07-14T17:59:18.990Z,32.48
2018-07-14T18:01:46.211Z,33.07
2018-07-14T18:04:13.422Z,33.83
2018-07-14T18:06:40.727Z,34.10
2018-07-14T18:09:09.084Z,34.09
2018-07-14T18:11:36.328Z,33.08
2018-07-14T18:14:03.583Z,34.34
2018-07-14T18:16:30.893Z,34.37
2018-07-14T18:18:58.142Z,34.16
2018-07-14T18:21:25.677Z,34.79
2018-07-14T18:23:52.916Z,34.29
2018-07-14T18:26:20.148Z,35.07
2018-07-14T18:28:47.613Z,34.74
2018-07-14T18:31:14.894Z,35.84
2018-07-14T18:33:42.116Z,35.74
2018-07-14T18:36:09.456Z,36.23
2018-07-14T18:38:36.680Z,36.71
2018-07-14T18:41:03.917Z,36.50
2018-07-14T18:43:31.212Z,36.28
2018-07-14T18:45:58.509Z,36.55
2018-07-14T18:48:25.732Z,37.66
2018-07-14T18:50:53.001Z,37.16
2018-07-14T18:53:20.240Z,37.85
2018-07-14T18:55:47.544Z,37.75
2018-07-14T18:58:14.806Z,38.71
2018-07-14T19:00:42.040Z,38.45
2018-07-14T19:03:09.375Z,38.81
2018-07-14T19:05:36.707Z,38.69
2018-07-14T19:08:04.523Z,38.98
2018-07-14T19:10:31.861Z,38.33
2018-07-14T19:12:59.201Z,38.94
2018-07-14T19:15:26.417Z,38.67
2018-07-14T19:17:53.703Z,39.04
2018-07-14T19:20:20.897Z,39.77
2018-07-14T19:22:48.136Z,39.36
2018-07-14T19:25:15.467Z,39.47
2018-07-14T19:27:42.726Z,39.89
2018-07-14T19:30:09.662Z,40.05
2018-07-14T19:32:36.989Z,40.42
2018-07-14T19:35:04.398Z,41.69
2018-07-14T19:37:31.647Z,40.89
2018-07-14T19:39:58.987Z,41.00
2018-07-14T19:42:26.239Z,41.65
2018-07-14T19:44:53.600Z,42.35
2018-07-14T19:47:20.849Z,42.18
2018-07-14T19:49:51.200Z,41.33
2018-07-14T19:52:18.463Z,41.58
2018-07-14T19:54:47.172Z,41.42
2018-07-14T19:57:19.598Z,42.43
2018-07-14T19:59:46.860Z,41.95
2018-07-14T20:02:14.213Z,42.17
2018-07-14T20:04:41.516Z,42.32
2018-07-14T20:07:08.786Z,42.63
2018-07-14T20:09:36.119Z,42.31
2018-07-14T20:12:03.388Z,42.45
2018-07-14T20:14:30.624Z,42.35
2018-07-14T20:16:57.961Z,42.78
2018-07-14T20:19:25.276Z,43.40
2018-07-14T20:21:52.510Z,43.93
2018-07-14T20:24:22.790Z,43.50
2018-07-14T20:26:50.006Z,44.13
2018-07-14T20:29:17.195Z,44.45
2018-07-14T20:31:44.439Z,43.99
2018-07-14T20:34:11.759Z,43.96
2018-07-14T20:36:38.957Z,44.70
2018-07-14T20:39:06.285Z,44.46
2018-07-14T20:41:33.649Z,44.84
2018-07-14T20:44:00.832Z,45.13
2018-07-14T20:46:28.115Z,44.69
2018-07-14T20:48:55.347Z,45.53
2018-07-14T20:51:22.556Z,46.09
2018-07-14T20:53:49.755Z,46.23
2018-07-14T20:56:17.006Z,47.56
2018-07-14T20:58:46.538Z,47.93
2018-07-14T21:01:13.798Z,47.51
2018-07-14T21:03:41.077Z,48.07
2018-07-14T21:06:13.206Z,48.34
2018-07-14T21:08:40.417Z,48.99
2018-07-14T21:11:07.713Z,49.26
2018-07-14T21:13:35.112Z,48.46
2018-07-14T21:16:02.451Z,49.21
2018-07-14T21:18:29.768Z,49.48
2018-07-14T21:20:57.112Z,49.00
2018-07-14T21:23:24.420Z,49.30
2018-07-14T21:25:51.651Z,49.30
2018-07-14T21:28:18.951Z,49.32
2018-07-14T21:30:46.321Z,49.58
2018-07-14T21:33:13.552Z,50.37
2018-07-14T21:35:40.809Z,50.65
2018-07-14T21:38:10.880Z,50.44
2018-07-14T21:40:38.194Z,50.19
2018-07-14T21:43:05.432Z,51.45
2018-07-14T21:45:32.822Z,51.13
2018-07-14T21:48:00.099Z,51.57
2018-07-14T21:50:27.360Z,52.10
2018-07-14T21:52:54.584Z,51.82
2018-07-14T21:55:21.845Z,51.65
2018-07-14T21:57:49.147Z,51.72
2018-07-14T22:00:28.534Z,51.84
2018-07-14T22:02:55.774Z,51.82
2018-07-14T22:05:22.996Z,52.66
2018-07-14T22:07:50.653Z,53.34
2018-07-14T22:10:18.090Z,52.57
2018-07-14T22:12:45.362Z,52.74
2018-07-14T22:15:12.628Z,53.46
2018-07-14T22:17:39.872Z,53.28
2018-07-14T22:20:08.068Z,53.32
2018-07-14T22:22:35.278Z,53.51
2018-07-14T22:25:02.457Z,54.18
2018-07-14T22:27:29.688Z,54.16
2018-07-14T22:29:56.959Z,54.01
2018-07-14T22:32:24.165Z,54.70
2018-07-14T22:34:51.379Z,54.48
2018-07-14T22:37:18.641Z,55.17
2018-07-14T22:39:45.886Z,54.87
2018-07-14T22:42:13.115Z,54.37
2018-07-14T22:44:40.298Z,54.74
2018-07-14T22:47:07.456Z,55.11
2018-07-14T22:49:34.708Z,54.81
2018-07-14T22:52:01.881Z,54.81
2018-07-14T22:54:29.175Z,55.76
2018-07-14T22:56:56.402Z,55.60
2018-07-14T22:59:23.648Z,55.59
2018-07-14T23:01:50.966Z,55.26
2018-07-14T23:04:18.252Z,55.75
2018-07-14T23:06:45.625Z,56.29
2018-07-14T23:09:12.792Z,55.96
2018-07-14T23:11:40.132Z,56.49
2018-07-14T23:14:07.529Z,57.13
2018-07-14T23:16:34.917Z,57.36
2018-07-14T23:19:02.194Z,57.00
2018-07-14T23:21:29.390Z,56.58
2018-07-14T23:23:56.926Z,57.07
2018-07-14T23:26:24.204Z,57.17
2018-07-14T23:28:51.589Z,57.64
2018-07-14T23:31:18.887Z,57.35
2018-07-14T23:33:46.165Z,57.57
2018-07-14T23:36:13.387Z,58.36
2018-07-14T23:38:40.600Z,57.60
2018-07-14T23:41:07.919Z,58.52
2018-07-14T23:43:35.093Z,58.56
2018-07-14T23:46:02.337Z,58.78
2018-07-14T23:48:30.494Z,58.35
2018-07-14T23:50:57.781Z,57.92
2018-07-14T23:53:25.370Z,58.75
2018-07-14T23:55:54.098Z,58.80
2018-07-14T23:58:21.579Z,59.13
